Time;durP1;ratioP1;P1;durP2;ratioP2;P2;SDS_P1;SDS_P2;PMS_P1;PMS_P2;Temp;Humidity;BMP_temperature;BMP_pressure;BME280_temperature;BME280_humidity;BME280_pressure;Samples;Min_cycle;Max_cycle;Signal;HPM_P1;HPM_P2
2021/08/06 00:00:59;;;;;;;20.07;19.07;;;;;;;;;;5095364;28;20452;-87
2021/08/06 00:03:26;;;;;;;19.83;18.83;;;;;;;;;;5095225;28;20415;-86
2021/08/06 00:05:55;;;;;;;20.67;19.47;;;;;;;;;;5094377;28;20843;-86
2021/08/06 00:08:22;;;;;;;19.80;18.70;;;;;;;;;;5095147;28;20415;-86
2021/08/06 00:10:49;;;;;;;19.97;18.83;;;;;;;;;;5095479;28;20896;-86
2021/08/06 00:13:18;;;;;;;19.03;18.13;;;;;;;;;;5095082;28;20444;-86
2021/08/06 00:15:46;;;;;;;19.67;18.67;;;;;;;;;;5095106;28;20795;-86
2021/08/06 00:18:13;;;;;;;19.87;18.77;;;;;;;;;;5094916;28;20400;-85
2021/08/06 00:20:40;;;;;;;19.90;18.90;;;;;;;;;;5095306;28;20440;-86
2021/08/06 00:23:08;;;;;;;19.90;18.90;;;;;;;;;;5093898;28;20433;-85
2021/08/06 00:25:35;;;;;;;20.43;19.23;;;;;;;;;;5094166;28;20457;-86
2021/08/06 00:28:03;;;;;;;20.03;18.93;;;;;;;;;;5095137;28;20438;-86
2021/08/06 00:30:32;;;;;;;20.17;19.10;;;;;;;;;;5093912;28;20411;-85
2021/08/06 00:33:00;;;;;;;19.30;18.30;;;;;;;;;;5094667;28;20826;-86
2021/08/06 00:35:27;;;;;;;20.93;19.63;;;;;;;;;;5093801;28;20963;-86
2021/08/06 00:37:55;;;;;;;20.60;19.50;;;;;;;;;;5094558;28;20407;-86
2021/08/06 00:40:23;;;;;;;21.10;20.00;;;;;;;;;;5094698;28;20449;-86
2021/08/06 00:42:50;;;;;;;20.30;19.30;;;;;;;;;;5095473;28;20816;-86
2021/08/06 00:45:18;;;;;;;20.83;19.53;;;;;;;;;;5094318;28;20475;-85
2021/08/06 00:47:47;;;;;;;20.73;19.70;;;;;;;;;;5094805;28;20415;-85
2021/08/06 00:50:16;;;;;;;20.70;19.50;;;;;;;;;;5094436;28;20774;-86
2021/08/06 00:52:44;;;;;;;20.40;19.30;;;;;;;;;;5093503;28;20489;-86
2021/08/06 00:55:12;;;;;;;20.47;19.40;;;;;;;;;;5094711;28;20814;-86
2021/08/06 00:57:41;;;;;;;20.40;19.40;;;;;;;;;;5094659;28;20495;-85
2021/08/06 01:00:09;;;;;;;19.83;18.83;;;;;;;;;;5094232;28;20411;-86
2021/08/06 01:02:40;;;;;;;20.43;19.33;;;;;;;;;;5094596;28;20445;-86
2021/08/06 01:05:11;;;;;;;20.70;19.60;;;;;;;;;;5094255;28;20451;-86
2021/08/06 01:07:43;;;;;;;20.40;19.30;;;;;;;;;;5094570;28;20435;-85
2021/08/06 01:10:12;;;;;;;20.67;19.57;;;;;;;;;;5094236;28;20419;-86
2021/08/06 01:12:42;;;;;;;19.73;18.63;;;;;;;;;;5094250;28;20434;-86
2021/08/06 01:15:12;;;;;;;20.30;19.10;;;;;;;;;;5094339;28;20425;-86
2021/08/06 01:17:41;;;;;;;20.13;19.07;;;;;;;;;;5094343;28;20434;-86
2021/08/06 01:20:12;;;;;;;19.50;18.40;;;;;;;;;;5094173;28;20449;-86
2021/08/06 01:22:41;;;;;;;20.10;18.90;;;;;;;;;;5093955;28;20438;-86
2021/08/06 01:25:10;;;;;;;20.57;19.40;;;;;;;;;;5094143;28;20832;-86
2021/08/06 01:27:40;;;;;;;20.93;19.63;;;;;;;;;;5094220;28;20449;-86
2021/08/06 01:30:09;;;;;;;20.50;19.40;;;;;;;;;;5093961;28;20424;-86
2021/08/06 01:32:36;;;;;;;19.90;18.90;;;;;;;;;;5094228;28;20474;-86
2021/08/06 01:35:04;;;;;;;21.30;20.10;;;;;;;;;;5094296;28;20449;-86
2021/08/06 01:37:32;;;;;;;20.20;19.10;;;;;;;;;;5097220;28;20403;-86
2021/08/06 01:39:59;;;;;;;20.13;19.03;;;;;;;;;;5098383;28;20428;-86
2021/08/06 01:42:32;;;;;;;20.53;19.37;;;;;;;;;;5098955;28;20457;-86
2021/08/06 01:45:01;;;;;;;21.17;19.97;;;;;;;;;;5097863;28;20452;-86
2021/08/06 01:47:31;;;;;;;20.60;19.50;;;;;;;;;;5097714;28;20467;-86
2021/08/06 01:50:00;;;;;;;21.30;20.07;;;;;;;;;;5097797;28;20455;-86
2021/08/06 01:52:29;;;;;;;21.97;20.60;;;;;;;;;;5097981;28;20440;-86
2021/08/06 01:55:01;;;;;;;21.40;20.20;;;;;;;;;;5097784;28;20927;-85
2021/08/06 01:57:29;;;;;;;20.63;19.43;;;;;;;;;;5096824;28;20437;-85
2021/08/06 01:59:57;;;;;;;20.83;19.63;;;;;;;;;;5097746;28;20425;-86
2021/08/06 02:02:26;;;;;;;22.07;20.87;;;;;;;;;;5097832;28;20419;-85
2021/08/06 02:04:53;;;;;;;21.87;20.67;;;;;;;;;;5097685;28;20473;-87
2021/08/06 02:07:21;;;;;;;21.43;20.23;;;;;;;;;;5097627;28;20453;-87
2021/08/06 02:09:49;;;;;;;21.80;20.67;;;;;;;;;;5097614;28;20419;-87
2021/08/06 02:12:16;;;;;;;21.43;20.13;;;;;;;;;;5097575;28;20419;-87
2021/08/06 02:14:44;;;;;;;20.70;19.60;;;;;;;;;;5097488;28;20418;-87
2021/08/06 02:17:11;;;;;;;21.97;20.60;;;;;;;;;;5096526;28;20442;-87
2021/08/06 02:19:41;;;;;;;23.00;21.40;;;;;;;;;;5097601;28;20901;-87
2021/08/06 02:22:09;;;;;;;21.50;20.33;;;;;;;;;;5097558;28;20430;-86
2021/08/06 02:24:36;;;;;;;22.50;21.10;;;;;;;;;;5097289;28;20467;-86
2021/08/06 02:27:04;;;;;;;22.00;20.80;;;;;;;;;;5096490;28;20413;-87
2021/08/06 02:29:32;;;;;;;22.77;21.40;;;;;;;;;;5097155;28;20444;-87
2021/08/06 02:32:00;;;;;;;21.43;20.30;;;;;;;;;;5097173;28;20445;-87
2021/08/06 02:34:28;;;;;;;21.37;20.20;;;;;;;;;;5097359;28;20438;-86
2021/08/06 02:36:58;;;;;;;21.80;20.60;;;;;;;;;;5096989;28;20912;-87
2021/08/06 02:39:27;;;;;;;22.67;21.07;;;;;;;;;;5096869;28;20933;-87
2021/08/06 02:41:56;;;;;;;21.77;20.57;;;;;;;;;;5097001;28;20452;-86
2021/08/06 02:44:24;;;;;;;21.37;20.17;;;;;;;;;;5096915;28;20425;-87
2021/08/06 02:46:51;;;;;;;22.77;21.57;;;;;;;;;;5096716;28;20488;-87
2021/08/06 02:49:19;;;;;;;22.80;21.60;;;;;;;;;;5095324;28;20412;-87
2021/08/06 02:51:46;;;;;;;22.03;20.60;;;;;;;;;;5097016;28;20415;-86
2021/08/06 02:54:15;;;;;;;22.03;20.73;;;;;;;;;;5096694;28;20433;-87
2021/08/06 02:56:42;;;;;;;21.50;20.27;;;;;;;;;;5096972;28;20503;-87
2021/08/06 02:59:10;;;;;;;21.97;20.37;;;;;;;;;;5096342;28;20814;-86
2021/08/06 03:01:37;;;;;;;21.57;20.37;;;;;;;;;;5096494;28;20938;-87
2021/08/06 03:04:05;;;;;;;21.37;20.20;;;;;;;;;;5096845;28;20893;-87
2021/08/06 03:06:32;;;;;;;22.30;21.03;;;;;;;;;;5095552;28;20513;-87
2021/08/06 03:09:00;;;;;;;21.03;20.03;;;;;;;;;;5096256;28;20432;-87
2021/08/06 03:11:29;;;;;;;22.63;21.23;;;;;;;;;;5096554;28;20448;-86
2021/08/06 03:13:56;;;;;;;21.63;20.43;;;;;;;;;;5096248;28;20514;-87
2021/08/06 03:16:24;;;;;;;22.67;21.30;;;;;;;;;;5096394;28;20767;-87
2021/08/06 03:18:51;;;;;;;23.40;22.00;;;;;;;;;;5096008;28;20923;-87
2021/08/06 03:21:19;;;;;;;22.50;21.30;;;;;;;;;;5096150;28;20415;-87
2021/08/06 03:23:46;;;;;;;21.67;20.47;;;;;;;;;;5096211;28;20465;-87
2021/08/06 03:26:13;;;;;;;23.90;22.50;;;;;;;;;;5096243;28;20452;-87
2021/08/06 03:28:42;;;;;;;22.97;21.67;;;;;;;;;;5095014;28;20844;-87
2021/08/06 03:31:10;;;;;;;21.77;20.67;;;;;;;;;;5096366;28;20869;-87
2021/08/06 03:33:37;;;;;;;22.20;21.00;;;;;;;;;;5095887;28;20416;-86
2021/08/06 03:36:05;;;;;;;24.13;22.67;;;;;;;;;;5096117;28;20437;-87
2021/08/06 03:38:32;;;;;;;22.50;21.20;;;;;;;;;;5095787;28;20433;-87
2021/08/06 03:41:00;;;;;;;21.43;20.20;;;;;;;;;;5095776;28;20404;-86
2021/08/06 03:43:27;;;;;;;21.80;20.50;;;;;;;;;;5095992;28;20417;-89
2021/08/06 03:45:56;;;;;;;21.57;20.20;;;;;;;;;;5095590;28;20485;-88
2021/08/06 03:48:23;;;;;;;22.27;20.90;;;;;;;;;;5096102;28;20420;-88
2021/08/06 03:50:51;;;;;;;21.67;20.37;;;;;;;;;;5095674;28;20408;-89
2021/08/06 03:53:18;;;;;;;21.57;20.27;;;;;;;;;;5077983;28;20826;-89
2021/08/06 03:55:45;;;;;;;21.73;20.63;;;;;;;;;;5096186;28;20425;-89
2021/08/06 03:58:13;;;;;;;23.07;21.20;;;;;;;;;;5095470;28;20405;-88
2021/08/06 04:00:41;;;;;;;23.20;21.80;;;;;;;;;;5095218;28;20440;-88
2021/08/06 04:03:10;;;;;;;21.47;20.27;;;;;;;;;;5095609;28;20437;-89
2021/08/06 04:05:38;;;;;;;20.93;19.73;;;;;;;;;;5095516;28;20893;-88
2021/08/06 04:08:06;;;;;;;19.90;18.90;;;;;;;;;;5095217;28;20420;-88
2021/08/06 04:10:33;;;;;;;21.60;20.50;;;;;;;;;;5095546;28;20961;-88
2021/08/06 04:13:00;;;;;;;21.20;20.10;;;;;;;;;;5095426;28;20460;-88
2021/08/06 04:15:28;;;;;;;21.80;20.50;;;;;;;;;;5095418;28;20445;-88
2021/08/06 04:17:56;;;;;;;21.60;20.30;;;;;;;;;;5095087;28;20438;-88
2021/08/06 04:20:25;;;;;;;22.17;20.87;;;;;;;;;;5095253;28;20417;-88
2021/08/06 04:22:52;;;;;;;21.23;20.03;;;;;;;;;;5095019;28;20974;-88
2021/08/06 04:25:20;;;;;;;21.47;20.27;;;;;;;;;;5095108;28;20469;-87
2021/08/06 04:27:47;;;;;;;20.90;19.80;;;;;;;;;;5095143;28;20775;-87
2021/08/06 04:30:15;;;;;;;20.27;19.07;;;;;;;;;;5094900;28;20491;-87
2021/08/06 04:32:43;;;;;;;21.47;20.37;;;;;;;;;;5095051;28;20428;-86
2021/08/06 04:35:10;;;;;;;20.80;19.70;;;;;;;;;;5095098;28;20410;-85
2021/08/06 04:37:47;;;;;;;20.73;19.40;;;;;;;;;;5094788;28;20469;-87
2021/08/06 04:40:15;;;;;;;19.73;18.73;;;;;;;;;;5095043;28;20456;-87
2021/08/06 04:42:42;;;;;;;20.03;18.93;;;;;;;;;;5094841;28;20532;-87
2021/08/06 04:45:10;;;;;;;20.50;19.50;;;;;;;;;;5094436;28;20424;-87
2021/08/06 04:47:37;;;;;;;20.57;19.47;;;;;;;;;;5094976;28;20408;-87
2021/08/06 04:50:05;;;;;;;20.90;19.80;;;;;;;;;;5094682;28;20433;-87
2021/08/06 04:52:32;;;;;;;21.80;20.30;;;;;;;;;;5094952;28;20444;-87
2021/08/06 04:55:01;;;;;;;20.73;19.53;;;;;;;;;;5094539;28;20447;-87
2021/08/06 04:57:29;;;;;;;21.00;19.90;;;;;;;;;;5094762;28;20447;-87
2021/08/06 04:59:56;;;;;;;21.40;20.17;;;;;;;;;;5094195;28;20887;-87
2021/08/06 05:02:24;;;;;;;21.60;20.43;;;;;;;;;;5094515;28;20440;-86
2021/08/06 05:04:51;;;;;;;21.40;20.30;;;;;;;;;;5093744;28;20429;-87
2021/08/06 05:07:19;;;;;;;22.20;21.10;;;;;;;;;;5094603;28;20484;-87
2021/08/06 05:09:46;;;;;;;21.10;20.00;;;;;;;;;;5094417;28;20438;-86
2021/08/06 05:12:15;;;;;;;21.33;20.23;;;;;;;;;;5094281;28;20485;-87
2021/08/06 05:14:43;;;;;;;21.50;20.30;;;;;;;;;;5094220;28;20400;-87
2021/08/06 05:17:10;;;;;;;21.90;20.60;;;;;;;;;;5094501;28;20502;-86
2021/08/06 05:19:38;;;;;;;21.00;19.90;;;;;;;;;;5094515;28;20890;-87
2021/08/06 05:22:05;;;;;;;20.97;19.87;;;;;;;;;;5094214;28;20431;-87
2021/08/06 05:24:33;;;;;;;20.77;19.67;;;;;;;;;;5094054;28;20465;-87
2021/08/06 05:27:00;;;;;;;20.97;19.87;;;;;;;;;;5094307;28;20489;-87
2021/08/06 05:29:29;;;;;;;21.97;20.67;;;;;;;;;;5093172;28;20459;-86
2021/08/06 05:31:57;;;;;;;23.00;21.70;;;;;;;;;;5094331;28;20411;-87
2021/08/06 05:34:24;;;;;;;22.93;21.57;;;;;;;;;;5094147;28;20425;-87
2021/08/06 05:36:51;;;;;;;24.00;22.77;;;;;;;;;;5094042;28;20438;-87
2021/08/06 05:39:19;;;;;;;22.47;21.17;;;;;;;;;;5094256;28;20429;-87
2021/08/06 05:41:46;;;;;;;21.27;20.17;;;;;;;;;;5094251;28;20445;-87
2021/08/06 05:44:13;;;;;;;22.30;20.90;;;;;;;;;;5094860;28;20420;-87
2021/08/06 05:46:42;;;;;;;21.47;20.37;;;;;;;;;;5093624;28;20486;-87
2021/08/06 05:49:10;;;;;;;23.40;22.00;;;;;;;;;;5093886;28;20437;-87
2021/08/06 05:51:37;;;;;;;22.23;21.00;;;;;;;;;;5094129;28;20438;-87
2021/08/06 05:54:05;;;;;;;23.43;22.03;;;;;;;;;;5093236;28;20452;-86
2021/08/06 05:56:33;;;;;;;22.70;21.23;;;;;;;;;;5094182;28;20446;-87
2021/08/06 05:59:00;;;;;;;21.97;20.77;;;;;;;;;;5093671;28;20430;-87
2021/08/06 06:01:27;;;;;;;23.23;21.60;;;;;;;;;;5094204;28;20794;-86
2021/08/06 06:03:56;;;;;;;21.83;20.43;;;;;;;;;;5094046;28;20847;-87
2021/08/06 06:06:24;;;;;;;21.80;20.60;;;;;;;;;;5094252;28;20761;-87
2021/08/06 06:08:51;;;;;;;21.20;20.00;;;;;;;;;;5092849;28;20449;-86
2021/08/06 06:11:19;;;;;;;20.93;19.83;;;;;;;;;;5094146;28;20412;-87
2021/08/06 06:13:47;;;;;;;21.67;20.50;;;;;;;;;;5093861;28;20413;-86
2021/08/06 06:16:14;;;;;;;21.40;20.20;;;;;;;;;;5093802;28;20420;-86
2021/08/06 06:18:41;;;;;;;21.10;20.00;;;;;;;;;;5093952;28;20429;-86
2021/08/06 06:21:10;;;;;;;21.40;20.10;;;;;;;;;;5093892;28;20433;-86
2021/08/06 06:23:38;;;;;;;20.90;19.70;;;;;;;;;;5095329;28;20456;-86
2021/08/06 06:26:07;;;;;;;21.20;20.00;;;;;;;;;;5097424;28;20471;-86
2021/08/06 06:28:34;;;;;;;20.40;19.30;;;;;;;;;;5097234;28;20482;-87
2021/08/06 06:31:02;;;;;;;20.60;19.50;;;;;;;;;;5097313;28;20445;-87
2021/08/06 06:33:29;;;;;;;20.47;19.33;;;;;;;;;;5097412;28;20424;-88
2021/08/06 06:35:57;;;;;;;20.53;19.43;;;;;;;;;;5096797;28;20507;-86
2021/08/06 06:38:26;;;;;;;20.43;19.23;;;;;;;;;;5096868;28;20938;-85
2021/08/06 06:40:53;;;;;;;20.63;19.50;;;;;;;;;;5097125;28;20452;-86
2021/08/06 06:43:20;;;;;;;20.77;19.60;;;;;;;;;;5095731;28;20442;-86
2021/08/06 06:45:48;;;;;;;20.20;19.10;;;;;;;;;;5097102;28;20478;-86
2021/08/06 06:48:16;;;;;;;20.60;19.50;;;;;;;;;;5096906;28;20420;-85
2021/08/06 06:50:43;;;;;;;20.07;18.97;;;;;;;;;;5096894;28;20411;-85
2021/08/06 06:53:10;;;;;;;20.33;19.23;;;;;;;;;;5096547;28;20430;-84
2021/08/06 06:55:39;;;;;;;20.00;19.00;;;;;;;;;;5096346;28;20419;-85
2021/08/06 06:58:06;;;;;;;20.40;19.30;;;;;;;;;;5096628;28;20439;-84
2021/08/06 07:00:35;;;;;;;20.57;19.47;;;;;;;;;;5096226;28;20416;-84
2021/08/06 07:03:02;;;;;;;20.87;19.77;;;;;;;;;;5096548;28;20407;-84
2021/08/06 07:05:30;;;;;;;19.73;18.57;;;;;;;;;;5096464;28;20437;-85
2021/08/06 07:07:57;;;;;;;20.10;19.10;;;;;;;;;;5096111;28;20493;-85
2021/08/06 07:10:25;;;;;;;20.13;19.20;;;;;;;;;;5096139;28;20424;-83
2021/08/06 07:12:55;;;;;;;21.13;19.93;;;;;;;;;;5096413;28;20461;-85
2021/08/06 07:15:22;;;;;;;20.00;18.90;;;;;;;;;;5095805;28;20992;-83
2021/08/06 07:17:50;;;;;;;20.40;19.40;;;;;;;;;;5096690;28;20461;-85
2021/08/06 07:20:19;;;;;;;20.80;19.60;;;;;;;;;;5096253;28;20423;-85
2021/08/06 07:22:46;;;;;;;21.90;20.23;;;;;;;;;;5095783;28;20472;-84
2021/08/06 07:25:15;;;;;;;20.83;19.63;;;;;;;;;;5095756;28;20500;-84
2021/08/06 07:27:43;;;;;;;20.43;19.43;;;;;;;;;;5095464;28;20486;-84
2021/08/06 07:30:12;;;;;;;20.57;19.37;;;;;;;;;;5095529;28;20435;-84
2021/08/06 07:32:40;;;;;;;20.70;19.60;;;;;;;;;;5095899;28;20446;-83
2021/08/06 07:35:08;;;;;;;20.60;19.47;;;;;;;;;;5094337;28;20417;-84
2021/08/06 07:37:35;;;;;;;20.70;18.97;;;;;;;;;;5096017;28;20454;-84
2021/08/06 07:40:03;;;;;;;19.80;18.80;;;;;;;;;;5095239;28;20443;-84
2021/08/06 07:42:30;;;;;;;20.67;19.40;;;;;;;;;;5096044;28;20421;-83
2021/08/06 07:44:57;;;;;;;20.70;19.50;;;;;;;;;;5095528;28;20410;-83
2021/08/06 07:47:26;;;;;;;21.03;20.00;;;;;;;;;;5095079;28;20485;-83
2021/08/06 07:49:54;;;;;;;19.17;18.17;;;;;;;;;;5095294;28;20439;-83
2021/08/06 07:52:21;;;;;;;21.53;20.13;;;;;;;;;;5095175;28;20431;-84
2021/08/06 07:54:48;;;;;;;21.50;20.40;;;;;;;;;;5096039;28;20437;-83
2021/08/06 07:57:16;;;;;;;20.70;19.60;;;;;;;;;;5095384;28;20818;-83
2021/08/06 07:59:43;;;;;;;21.30;19.93;;;;;;;;;;5095104;28;20447;-84
2021/08/06 08:02:11;;;;;;;20.40;19.40;;;;;;;;;;5094973;28;20438;-83
2021/08/06 08:04:39;;;;;;;20.43;19.43;;;;;;;;;;5095299;28;20421;-83
2021/08/06 08:07:07;;;;;;;19.97;19.00;;;;;;;;;;5095055;28;20481;-83
2021/08/06 08:09:35;;;;;;;20.00;19.00;;;;;;;;;;5093725;28;20403;-83
2021/08/06 08:12:02;;;;;;;19.60;18.60;;;;;;;;;;5094912;28;20455;-82
2021/08/06 08:14:29;;;;;;;20.50;19.37;;;;;;;;;;5094987;28;20446;-83
2021/08/06 08:16:57;;;;;;;20.77;19.67;;;;;;;;;;5094768;28;20509;-83
2021/08/06 08:19:25;;;;;;;21.00;19.70;;;;;;;;;;5094659;28;20899;-83
2021/08/06 08:21:54;;;;;;;21.20;20.07;;;;;;;;;;5094722;28;20458;-83
2021/08/06 08:24:21;;;;;;;20.83;19.83;;;;;;;;;;5094599;28;20467;-83
2021/08/06 08:26:48;;;;;;;20.13;19.03;;;;;;;;;;5095565;28;20486;-83
2021/08/06 08:29:16;;;;;;;21.23;19.93;;;;;;;;;;5094254;28;20432;-82
2021/08/06 08:31:43;;;;;;;20.17;19.10;;;;;;;;;;5094696;28;20757;-83
2021/08/06 08:34:10;;;;;;;20.20;19.23;;;;;;;;;;5094336;28;20421;-83
2021/08/06 08:36:38;;;;;;;21.03;20.00;;;;;;;;;;5094528;28;20437;-83
2021/08/06 08:39:06;;;;;;;21.47;20.30;;;;;;;;;;5094387;28;20438;-87
2021/08/06 08:41:34;;;;;;;21.77;20.57;;;;;;;;;;5094754;28;20412;-84
2021/08/06 08:44:02;;;;;;;21.03;19.83;;;;;;;;;;5094502;28;20437;-83
2021/08/06 08:46:31;;;;;;;20.83;19.60;;;;;;;;;;5093092;28;20492;-83
2021/08/06 08:48:59;;;;;;;20.60;19.60;;;;;;;;;;5094291;28;20513;-83
2021/08/06 08:51:27;;;;;;;20.17;19.27;;;;;;;;;;5093518;28;20413;-83
2021/08/06 08:53:55;;;;;;;20.70;19.70;;;;;;;;;;5093948;28;20623;-82
2021/08/06 08:56:24;;;;;;;20.80;19.60;;;;;;;;;;5093932;28;20440;-82
2021/08/06 08:58:52;;;;;;;20.30;19.20;;;;;;;;;;5094190;28;20794;-84
2021/08/06 09:01:19;;;;;;;19.97;18.97;;;;;;;;;;5094212;28;20437;-84
2021/08/06 09:03:48;;;;;;;19.60;18.70;;;;;;;;;;5094557;28;20409;-83
2021/08/06 09:06:15;;;;;;;19.80;18.70;;;;;;;;;;5094463;28;20413;-83
2021/08/06 09:08:43;;;;;;;19.47;18.50;;;;;;;;;;5094265;28;20453;-84
2021/08/06 09:11:28;;;;;;;18.13;17.33;;;;;;;;;;5093845;28;20409;-83
2021/08/06 09:13:56;;;;;;;19.50;18.10;;;;;;;;;;5094146;28;20410;-84
2021/08/06 09:16:23;;;;;;;19.17;18.17;;;;;;;;;;5093845;28;20443;-84
2021/08/06 09:18:50;;;;;;;18.60;17.80;;;;;;;;;;5094141;28;20441;-84
2021/08/06 09:21:22;;;;;;;17.07;16.27;;;;;;;;;;5093525;28;20548;-85
2021/08/06 09:23:51;;;;;;;17.50;16.80;;;;;;;;;;5093388;28;20492;-85
2021/08/06 09:26:38;;;;;;;18.50;17.60;;;;;;;;;;5094288;28;20437;-85
2021/08/06 09:29:07;;;;;;;18.23;17.37;;;;;;;;;;5093750;28;20489;-85
2021/08/06 09:31:36;;;;;;;17.60;16.80;;;;;;;;;;5094074;28;20455;-85
2021/08/06 09:34:14;;;;;;;18.30;17.50;;;;;;;;;;5094135;28;20915;-84
2021/08/06 09:36:52;;;;;;;17.90;17.00;;;;;;;;;;5093624;28;20450;-84
2021/08/06 09:39:20;;;;;;;19.60;18.67;;;;;;;;;;5093798;28;20486;-83
2021/08/06 09:41:48;;;;;;;19.23;18.27;;;;;;;;;;5093514;28;20484;-83
2021/08/06 09:44:17;;;;;;;19.80;18.90;;;;;;;;;;5093602;28;20410;-84
2021/08/06 09:46:46;;;;;;;20.60;19.63;;;;;;;;;;5093533;28;20973;-84
2021/08/06 09:49:13;;;;;;;19.70;18.80;;;;;;;;;;5093735;28;20442;-84
2021/08/06 09:51:42;;;;;;;20.33;19.33;;;;;;;;;;5093927;28;20446;-83
2021/08/06 09:54:19;;;;;;;19.03;18.13;;;;;;;;;;5093834;28;20511;-85
2021/08/06 09:56:47;;;;;;;19.90;18.90;;;;;;;;;;5094000;28;20421;-85
2021/08/06 09:59:14;;;;;;;21.57;20.47;;;;;;;;;;5097574;28;20424;-89
2021/08/06 10:01:43;;;;;;;18.97;18.17;;;;;;;;;;5096745;28;20442;-85
2021/08/06 10:04:15;;;;;;;20.57;19.67;;;;;;;;;;5097334;28;20408;-86
2021/08/06 10:06:57;;;;;;;21.33;20.43;;;;;;;;;;5097576;28;20473;-86
2021/08/06 10:09:26;;;;;;;20.83;19.73;;;;;;;;;;5097469;28;20453;-87
2021/08/06 10:11:53;;;;;;;23.87;21.97;;;;;;;;;;5097901;28;20413;-84
2021/08/06 10:14:21;;;;;;;23.00;21.67;;;;;;;;;;5097655;28;20421;-86
2021/08/06 10:16:49;;;;;;;23.20;22.20;;;;;;;;;;5097551;28;20406;-86
2021/08/06 10:19:17;;;;;;;22.60;21.50;;;;;;;;;;5097691;28;20811;-86
2021/08/06 10:21:44;;;;;;;22.63;21.40;;;;;;;;;;5097331;28;20406;-84
2021/08/06 10:24:15;;;;;;;20.53;19.63;;;;;;;;;;5096958;28;20483;-84
2021/08/06 10:26:44;;;;;;;21.00;20.00;;;;;;;;;;5097248;28;20444;-84
2021/08/06 10:29:12;;;;;;;20.17;19.17;;;;;;;;;;5096954;28;20483;-84
2021/08/06 10:31:40;;;;;;;20.30;19.30;;;;;;;;;;5097104;28;20454;-84
2021/08/06 10:34:09;;;;;;;21.37;20.27;;;;;;;;;;5095995;28;20442;-84
2021/08/06 10:36:41;;;;;;;18.67;17.87;;;;;;;;;;5096419;28;20431;-83
2021/08/06 10:39:23;;;;;;;21.27;20.27;;;;;;;;;;5097112;28;20837;-83
2021/08/06 10:41:51;;;;;;;20.93;19.93;;;;;;;;;;5098683;28;20813;-84
2021/08/06 10:44:18;;;;;;;20.73;19.83;;;;;;;;;;5096963;28;20447;-84
2021/08/06 10:46:58;;;;;;;21.93;20.77;;;;;;;;;;5096645;28;20456;-85
2021/08/06 10:49:27;;;;;;;21.23;20.27;;;;;;;;;;5096718;28;20434;-83
2021/08/06 10:52:14;;;;;;;21.43;20.37;;;;;;;;;;5096681;28;20439;-83
2021/08/06 10:54:42;;;;;;;21.43;20.50;;;;;;;;;;5096438;28;20424;-83
2021/08/06 10:57:30;;;;;;;20.70;19.50;;;;;;;;;;5096311;28;20788;-84
2021/08/06 10:59:59;;;;;;;22.07;21.00;;;;;;;;;;5096173;28;20439;-81
2021/08/06 11:02:49;;;;;;;21.30;20.20;;;;;;;;;;5096623;28;20482;-84
2021/08/06 11:05:31;;;;;;;21.70;20.60;;;;;;;;;;5095274;28;20500;-84
2021/08/06 11:08:00;;;;;;;22.03;20.93;;;;;;;;;;5096008;28;20494;-84
2021/08/06 11:10:47;;;;;;;22.90;21.50;;;;;;;;;;5095714;28;20415;-84
2021/08/06 11:13:32;;;;;;;22.47;21.27;;;;;;;;;;5096431;28;20937;-84
2021/08/06 11:16:05;;;;;;;21.60;20.43;;;;;;;;;;5089392;28;20973;-83
2021/08/06 11:18:33;;;;;;;22.40;21.30;;;;;;;;;;5096092;28;20491;-83
2021/08/06 11:21:02;;;;;;;21.50;20.50;;;;;;;;;;5094796;28;20911;-84
2021/08/06 11:23:30;;;;;;;21.90;20.90;;;;;;;;;;5096043;28;20476;-85
2021/08/06 11:26:06;;;;;;;22.20;21.00;;;;;;;;;;5096009;28;20440;-85
2021/08/06 11:28:34;;;;;;;23.10;21.90;;;;;;;;;;5095895;28;20457;-85
2021/08/06 11:31:01;;;;;;;22.03;20.83;;;;;;;;;;5096119;28;20494;-85
2021/08/06 11:33:29;;;;;;;22.03;20.83;;;;;;;;;;5096068;28;20467;-84
2021/08/06 11:35:56;;;;;;;22.20;21.00;;;;;;;;;;5096714;28;20905;-85
2021/08/06 11:38:25;;;;;;;21.77;20.57;;;;;;;;;;5095985;28;20436;-85
2021/08/06 11:40:56;;;;;;;21.83;20.70;;;;;;;;;;5096621;28;20471;-85
2021/08/06 11:43:24;;;;;;;22.00;20.90;;;;;;;;;;5095909;28;20458;-85
2021/08/06 11:45:52;;;;;;;22.30;21.20;;;;;;;;;;5095164;28;20965;-85
2021/08/06 11:48:20;;;;;;;22.30;21.10;;;;;;;;;;5095386;28;21004;-85
2021/08/06 11:50:48;;;;;;;22.40;21.30;;;;;;;;;;5094612;28;20479;-85
2021/08/06 11:53:17;;;;;;;22.63;21.33;;;;;;;;;;5095384;28;20436;-85
2021/08/06 11:55:46;;;;;;;21.13;20.03;;;;;;;;;;5095597;28;20448;-85
2021/08/06 11:58:14;;;;;;;22.27;21.00;;;;;;;;;;5095574;28;20441;-85
2021/08/06 12:00:43;;;;;;;22.17;21.07;;;;;;;;;;5095355;28;20958;-85
2021/08/06 12:03:11;;;;;;;21.33;20.23;;;;;;;;;;5095398;28;20448;-87
2021/08/06 12:05:40;;;;;;;22.27;21.17;;;;;;;;;;5095514;28;20463;-87
2021/08/06 12:08:17;;;;;;;21.80;20.50;;;;;;;;;;5095920;28;20471;-85
2021/08/06 12:10:46;;;;;;;26.43;24.33;;;;;;;;;;5095210;28;20428;-85
2021/08/06 12:13:15;;;;;;;65.93;61.03;;;;;;;;;;5095496;28;20440;-86
2021/08/06 12:15:42;;;;;;;67.00;59.37;;;;;;;;;;5095999;28;20454;-86
2021/08/06 12:18:11;;;;;;;60.87;56.87;;;;;;;;;;5095069;28;20463;-85
2021/08/06 12:20:39;;;;;;;52.57;48.40;;;;;;;;;;5095268;28;20431;-85
2021/08/06 12:23:06;;;;;;;55.40;51.90;;;;;;;;;;5094839;28;20464;-85
2021/08/06 12:25:34;;;;;;;53.37;49.90;;;;;;;;;;5093700;28;20964;-85
2021/08/06 12:28:04;;;;;;;47.70;44.70;;;;;;;;;;5093787;28;20499;-85
2021/08/06 12:30:32;;;;;;;45.67;42.83;;;;;;;;;;5095170;28;20445;-94
2021/08/06 12:33:00;;;;;;;48.13;44.93;;;;;;;;;;5095551;28;20448;-86
2021/08/06 12:35:28;;;;;;;50.70;47.33;;;;;;;;;;5094786;28;20885;-85
2021/08/06 12:37:55;;;;;;;47.63;44.67;;;;;;;;;;5094533;28;20424;-84
2021/08/06 12:40:23;;;;;;;48.27;45.33;;;;;;;;;;5094991;28;20451;-85
2021/08/06 12:42:51;;;;;;;49.73;46.73;;;;;;;;;;5094698;28;20486;-85
2021/08/06 12:45:21;;;;;;;50.30;47.10;;;;;;;;;;5093547;28;20489;-85
2021/08/06 12:47:50;;;;;;;50.77;47.77;;;;;;;;;;5094576;28;20959;-84
2021/08/06 12:50:25;;;;;;;48.70;45.80;;;;;;;;;;5094627;28;20799;-84
2021/08/06 12:53:00;;;;;;;49.40;46.50;;;;;;;;;;5094163;28;20448;-84
2021/08/06 12:55:30;;;;;;;49.87;46.87;;;;;;;;;;5094487;28;20454;-85
2021/08/06 12:57:59;;;;;;;48.90;45.87;;;;;;;;;;5094435;28;20414;-84
2021/08/06 13:00:30;;;;;;;50.47;47.77;;;;;;;;;;5094467;28;20466;-84
2021/08/06 13:02:58;;;;;;;48.87;45.97;;;;;;;;;;5094940;28;20526;-84
2021/08/06 13:05:26;;;;;;;51.40;48.27;;;;;;;;;;5094200;28;20496;-84
2021/08/06 13:07:53;;;;;;;50.13;47.33;;;;;;;;;;5093903;28;20417;-84
2021/08/06 13:10:25;;;;;;;43.93;41.43;;;;;;;;;;5094155;28;20408;-84
2021/08/06 13:12:52;;;;;;;46.90;44.27;;;;;;;;;;5093128;28;20453;-84
2021/08/06 13:15:19;;;;;;;41.90;39.60;;;;;;;;;;5094016;28;20446;-84
2021/08/06 13:17:49;;;;;;;42.73;40.57;;;;;;;;;;5093990;28;20402;-84
2021/08/06 13:20:17;;;;;;;46.10;43.60;;;;;;;;;;5094050;28;20450;-84
2021/08/06 13:22:44;;;;;;;43.60;41.40;;;;;;;;;;5094229;28;20813;-84
2021/08/06 13:25:13;;;;;;;42.33;40.23;;;;;;;;;;5094327;28;20433;-84
2021/08/06 13:27:40;;;;;;;39.13;36.93;;;;;;;;;;5093857;28;20840;-84
2021/08/06 13:30:09;;;;;;;42.07;39.80;;;;;;;;;;5093990;28;20482;-84
2021/08/06 13:32:37;;;;;;;40.10;38.10;;;;;;;;;;5095825;28;20451;-84
2021/08/06 13:35:06;;;;;;;43.00;40.80;;;;;;;;;;5098048;28;20430;-84
2021/08/06 13:37:33;;;;;;;43.87;41.67;;;;;;;;;;5097934;28;20430;-84
2021/08/06 13:40:01;;;;;;;44.10;41.77;;;;;;;;;;5098111;28;20455;-84
2021/08/06 13:42:28;;;;;;;43.20;41.00;;;;;;;;;;5098109;28;20446;-84
2021/08/06 13:44:56;;;;;;;42.90;40.70;;;;;;;;;;5098074;28;20442;-84
2021/08/06 13:47:23;;;;;;;44.17;41.83;;;;;;;;;;5097590;28;20471;-85
2021/08/06 13:49:51;;;;;;;44.00;41.60;;;;;;;;;;5097734;28;20540;-84
2021/08/06 13:52:20;;;;;;;45.87;43.57;;;;;;;;;;5098442;28;20444;-84
2021/08/06 13:54:47;;;;;;;46.67;44.17;;;;;;;;;;5097752;28;20439;-84
2021/08/06 13:57:15;;;;;;;45.83;43.53;;;;;;;;;;5097827;28;20446;-84
2021/08/06 13:59:42;;;;;;;43.70;41.50;;;;;;;;;;5097350;28;20418;-84
2021/08/06 14:02:10;;;;;;;44.17;41.97;;;;;;;;;;5097422;28;20440;-84
2021/08/06 14:04:37;;;;;;;44.27;41.50;;;;;;;;;;5098245;28;20443;-84
2021/08/06 14:07:05;;;;;;;44.73;41.00;;;;;;;;;;5098153;28;20999;-84
2021/08/06 14:09:34;;;;;;;43.43;41.27;;;;;;;;;;5097469;28;20509;-84
2021/08/06 14:12:01;;;;;;;41.60;39.60;;;;;;;;;;5097381;28;20432;-84
2021/08/06 14:14:29;;;;;;;41.87;39.77;;;;;;;;;;5097405;28;20450;-84
2021/08/06 14:16:56;;;;;;;44.17;41.87;;;;;;;;;;5096363;28;20452;-84
2021/08/06 14:19:24;;;;;;;43.27;40.90;;;;;;;;;;5097318;28;20435;-84
2021/08/06 14:21:51;;;;;;;38.93;37.03;;;;;;;;;;5096358;28;20443;-84
2021/08/06 14:24:18;;;;;;;41.37;39.27;;;;;;;;;;5097065;28;20482;-84